createdAt,value
2018-02-20T00:00:44.618Z,30.83
2018-02-20T00:03:11.247Z,30.50
2018-02-20T00:05:37.886Z,29.00
2018-02-20T00:08:04.529Z,30.33
2018-02-20T00:10:31.265Z,33.00
2018-02-20T00:12:57.879Z,32.05
2018-02-20T00:15:24.546Z,29.60
2018-02-20T00:17:51.167Z,33.55
2018-02-20T00:20:17.782Z,30.85
2018-02-20T00:22:44.406Z,30.15
2018-02-20T00:25:11.106Z,33.13
2018-02-20T00:27:37.842Z,33.38
2018-02-20T00:30:04.454Z,29.80
2018-02-20T00:32:31.118Z,32.65
2018-02-20T00:34:57.748Z,33.63
2018-02-20T00:37:24.362Z,33.10
2018-02-20T00:39:50.990Z,33.65
2018-02-20T00:42:17.718Z,31.40
2018-02-20T00:44:44.421Z,31.90
2018-02-20T00:47:11.054Z,32.90
2018-02-20T00:49:37.662Z,31.10
2018-02-20T00:52:04.334Z,32.88
2018-02-20T00:54:30.958Z,31.58
2018-02-20T00:56:57.926Z,32.65
2018-02-20T00:59:24.556Z,30.23
2018-02-20T01:01:51.186Z,32.83
2018-02-20T01:04:17.803Z,31.67
2018-02-20T01:06:44.473Z,30.05
2018-02-20T01:09:11.083Z,32.70
2018-02-20T01:11:37.690Z,33.47
2018-02-20T01:14:04.394Z,33.78
2018-02-20T01:16:31.038Z,34.28
2018-02-20T01:18:57.656Z,32.67
2018-02-20T01:21:24.281Z,33.47
2018-02-20T01:23:50.954Z,32.70
2018-02-20T01:26:17.560Z,31.67
2018-02-20T01:28:44.230Z,39.70
2018-02-20T01:31:10.843Z,36.05
2018-02-20T01:33:37.509Z,33.70
2018-02-20T01:36:04.134Z,31.87
2018-02-20T01:38:30.786Z,33.70
2018-02-20T01:40:57.466Z,34.75
2018-02-20T01:43:24.226Z,33.70
2018-02-20T01:45:50.906Z,35.58
2018-02-20T01:48:17.530Z,34.17
2018-02-20T01:50:49.918Z,37.15
2018-02-20T01:53:16.542Z,33.20
2018-02-20T01:55:43.157Z,32.17
2018-02-20T01:58:09.852Z,33.22
2018-02-20T02:00:36.478Z,32.80
2018-02-20T02:03:03.090Z,33.40
2018-02-20T02:05:29.703Z,33.85
2018-02-20T02:07:56.393Z,32.85
2018-02-20T02:10:23.005Z,33.40
2018-02-20T02:12:49.617Z,33.25
2018-02-20T02:15:16.309Z,32.63
2018-02-20T02:17:42.950Z,34.25
2018-02-20T02:20:09.564Z,31.37
2018-02-20T02:22:36.313Z,33.20
2018-02-20T02:25:02.931Z,33.40
2018-02-20T02:27:29.609Z,33.83
2018-02-20T02:29:56.226Z,34.90
2018-02-20T02:32:22.837Z,34.67
2018-02-20T02:34:49.466Z,35.72
2018-02-20T02:37:16.175Z,36.53
2018-02-20T02:39:42.803Z,36.72
2018-02-20T02:42:09.414Z,41.40
2018-02-20T02:44:36.031Z,36.88
2018-02-20T02:47:02.725Z,37.25
2018-02-20T02:49:29.342Z,36.28
2018-02-20T02:51:56.006Z,38.15
2018-02-20T02:54:22.637Z,33.40
2018-02-20T02:56:49.276Z,39.30
2018-02-20T02:59:15.910Z,33.95
2018-02-20T03:01:42.533Z,33.58
2018-02-20T03:04:09.143Z,35.00
2018-02-20T03:06:35.834Z,35.35
2018-02-20T03:09:02.439Z,35.63
2018-02-20T03:11:29.065Z,33.17
2018-02-20T03:13:55.678Z,33.47
2018-02-20T03:16:22.389Z,34.70
2018-02-20T03:18:49.018Z,35.42
2018-02-20T03:21:15.672Z,34.00
2018-02-20T03:23:42.308Z,33.50
2018-02-20T03:26:08.944Z,33.03
2018-02-20T03:28:35.594Z,35.33
2018-02-20T03:31:02.227Z,34.92
2018-02-20T03:33:28.862Z,33.53
2018-02-20T03:35:55.479Z,35.40
2018-02-20T03:38:22.094Z,34.92
2018-02-20T03:40:48.782Z,35.42
2018-02-20T03:43:15.418Z,35.45
2018-02-20T03:45:42.038Z,36.10
2018-02-20T03:48:08.701Z,35.67
2018-02-20T03:50:35.322Z,35.05
2018-02-20T03:53:01.938Z,33.10
2018-02-20T03:55:28.657Z,35.28
2018-02-20T03:57:55.357Z,36.85
2018-02-20T04:00:22.097Z,35.97
2018-02-20T04:02:48.710Z,36.15
2018-02-20T04:05:15.329Z,34.03
2018-02-20T04:07:41.957Z,38.63
2018-02-20T04:10:08.666Z,33.92
2018-02-20T04:12:35.278Z,35.70
2018-02-20T04:15:01.910Z,35.25
2018-02-20T04:17:28.614Z,34.22
2018-02-20T04:19:55.313Z,35.83
2018-02-20T04:22:21.922Z,33.88
2018-02-20T04:24:48.550Z,36.53
2018-02-20T04:27:15.229Z,37.70
2018-02-20T04:29:41.874Z,35.58
2018-02-20T04:32:08.502Z,35.58
2018-02-20T04:34:35.114Z,35.38
2018-02-20T04:37:01.754Z,37.58
2018-02-20T04:39:28.369Z,36.78
2018-02-20T04:41:55.067Z,35.08
2018-02-20T04:44:21.807Z,37.05
2018-02-20T04:46:49.343Z,37.00
2018-02-20T04:49:15.962Z,37.20
2018-02-20T04:51:42.641Z,37.63
2018-02-20T04:54:09.286Z,37.80
2018-02-20T04:56:35.901Z,40.10
2018-02-20T04:59:02.538Z,40.65
2018-02-20T05:01:29.210Z,37.72
2018-02-20T05:03:55.826Z,39.22
2018-02-20T05:06:22.449Z,36.08
2018-02-20T05:08:49.118Z,36.65
2018-02-20T05:11:15.734Z,36.75
2018-02-20T05:13:42.361Z,38.90
2018-02-20T05:16:09.038Z,37.22
2018-02-20T05:18:35.654Z,36.33
2018-02-20T05:21:02.286Z,36.78
2018-02-20T05:23:28.996Z,36.65
2018-02-20T05:25:55.739Z,37.38
2018-02-20T05:28:22.365Z,38.55
2018-02-20T05:30:48.973Z,34.78
2018-02-20T05:33:15.585Z,36.08
2018-02-20T05:35:42.215Z,39.75
2018-02-20T05:38:08.826Z,36.70
2018-02-20T05:40:35.429Z,33.38
2018-02-20T05:43:02.056Z,33.05
2018-02-20T05:45:28.710Z,33.80
2018-02-20T05:47:55.322Z,33.92
2018-02-20T05:50:21.991Z,34.40
2018-02-20T05:52:48.626Z,34.70
2018-02-20T05:55:15.242Z,35.17
2018-02-20T05:57:41.901Z,35.08
2018-02-20T06:00:08.585Z,35.70
2018-02-20T06:02:35.194Z,33.53
2018-02-20T06:05:01.922Z,35.15
2018-02-20T06:07:28.564Z,34.50
2018-02-20T06:09:55.180Z,35.08
2018-02-20T06:12:21.811Z,35.20
2018-02-20T06:14:48.421Z,33.13
2018-02-20T06:17:15.026Z,35.28
2018-02-20T06:19:41.659Z,33.88
2018-02-20T06:22:08.294Z,35.00
2018-02-20T06:24:34.934Z,33.28
2018-02-20T06:27:01.673Z,35.80
2018-02-20T06:29:28.356Z,33.17
2018-02-20T06:31:54.961Z,35.30
2018-02-20T06:34:21.694Z,33.42
2018-02-20T06:36:48.310Z,32.90
2018-02-20T06:39:15.015Z,35.15
2018-02-20T06:41:41.654Z,35.22
2018-02-20T06:44:08.276Z,35.28
2018-02-20T06:46:34.933Z,37.13
2018-02-20T06:49:01.639Z,32.92
2018-02-20T06:51:28.249Z,33.15
2018-02-20T06:53:54.952Z,35.03
2018-02-20T06:56:21.575Z,32.90
2018-02-20T06:58:48.298Z,33.33
2018-02-20T07:01:14.929Z,34.15
2018-02-20T07:03:41.558Z,33.75
2018-02-20T07:06:08.212Z,32.75
2018-02-20T07:08:34.855Z,32.58
2018-02-20T07:11:01.485Z,34.78
2018-02-20T07:13:28.125Z,34.30
2018-02-20T07:15:54.773Z,33.20
2018-02-20T07:18:21.506Z,33.15
2018-02-20T07:20:48.121Z,34.90
2018-02-20T07:23:14.782Z,32.85
2018-02-20T07:25:41.410Z,33.45
2018-02-20T07:28:08.027Z,35.40
2018-02-20T07:30:34.639Z,34.03
2018-02-20T07:33:01.384Z,34.50
2018-02-20T07:35:27.993Z,35.03
2018-02-20T07:37:54.619Z,34.20
2018-02-20T07:40:21.262Z,34.40
2018-02-20T07:42:47.874Z,32.45
2018-02-20T07:45:14.476Z,34.20
2018-02-20T07:47:41.114Z,35.25
2018-02-20T07:50:07.751Z,33.20
2018-02-20T07:52:34.358Z,34.30
2018-02-20T07:55:01.032Z,33.60
2018-02-20T07:57:27.738Z,33.60
2018-02-20T07:59:54.374Z,32.60
2018-02-20T08:02:21.051Z,34.72
2018-02-20T08:04:47.661Z,34.05
2018-02-20T08:07:14.432Z,33.33
2018-02-20T08:09:40.914Z,33.45
2018-02-20T08:12:07.569Z,34.70
2018-02-20T08:14:34.186Z,33.38
2018-02-20T08:17:00.813Z,36.75
2018-02-20T08:19:27.529Z,33.70
2018-02-20T08:21:54.231Z,35.15
2018-02-20T08:24:20.965Z,34.88
2018-02-20T08:26:47.649Z,36.60
2018-02-20T08:29:14.257Z,32.35
2018-02-20T08:31:41.028Z,34.63
2018-02-20T08:34:07.638Z,34.50
2018-02-20T08:36:34.249Z,35.22
2018-02-20T08:39:00.878Z,36.30
2018-02-20T08:41:27.494Z,33.85
2018-02-20T08:43:54.188Z,33.75
2018-02-20T08:46:20.826Z,36.10
2018-02-20T08:48:47.434Z,33.08
2018-02-20T08:51:14.046Z,33.60
2018-02-20T08:53:40.733Z,34.78
2018-02-20T08:56:07.349Z,35.08
2018-02-20T08:58:34.023Z,34.75
2018-02-20T09:01:00.658Z,34.50
2018-02-20T09:03:27.302Z,36.88
2018-02-20T09:05:53.917Z,36.10
2018-02-20T09:08:20.573Z,35.08
2018-02-20T09:10:47.191Z,33.40
2018-02-20T09:13:13.812Z,37.22
2018-02-20T09:15:40.533Z,36.15
2018-02-20T09:18:07.137Z,39.53
2018-02-20T09:20:33.764Z,34.30
2018-02-20T09:23:00.394Z,34.75
2018-02-20T09:25:27.076Z,33.65
2018-02-20T09:27:53.693Z,37.33
2018-02-20T09:30:20.322Z,34.85
2018-02-20T09:32:47.006Z,33.08
2018-02-20T09:35:13.748Z,33.80
2018-02-20T09:37:40.374Z,36.42
2018-02-20T09:40:07.089Z,34.45
2018-02-20T09:42:33.706Z,34.05
2018-02-20T09:45:00.339Z,34.40
2018-02-20T09:47:26.949Z,37.88
2018-02-20T09:49:53.685Z,36.90
2018-02-20T09:52:20.315Z,36.38
2018-02-20T09:54:47.026Z,38.80
2018-02-20T09:57:13.705Z,35.50
2018-02-20T09:59:40.410Z,36.83
2018-02-20T10:02:07.037Z,35.55
2018-02-20T10:04:33.725Z,33.83
2018-02-20T10:07:00.366Z,36.85
2018-02-20T10:09:27.065Z,35.22
2018-02-20T10:11:53.685Z,36.22
2018-02-20T10:14:20.314Z,36.50
2018-02-20T10:16:46.925Z,30.70
2018-02-20T10:19:13.534Z,31.58
2018-02-20T10:21:40.257Z,33.65
2018-02-20T10:24:06.902Z,30.33
2018-02-20T10:26:33.537Z,34.03
2018-02-20T10:29:00.165Z,30.75
2018-02-20T10:31:26.808Z,33.75
2018-02-20T10:33:53.430Z,32.17
2018-02-20T10:36:20.093Z,31.42
2018-02-20T10:38:46.733Z,31.92
2018-02-20T10:41:13.374Z,29.95
2018-02-20T10:43:40.006Z,31.30
2018-02-20T10:46:06.614Z,30.83
2018-02-20T10:48:33.288Z,28.83
2018-02-20T10:51:00.030Z,31.02
2018-02-20T10:53:26.650Z,28.23
2018-02-20T10:55:53.261Z,32.47
2018-02-20T10:58:19.886Z,30.62
2018-02-20T11:00:46.589Z,29.90
2018-02-20T11:03:13.268Z,32.75
2018-02-20T11:05:40.009Z,34.20
2018-02-20T11:08:06.628Z,30.17
2018-02-20T11:10:33.228Z,31.48
2018-02-20T11:12:59.857Z,29.95
2018-02-20T11:15:26.527Z,30.70
2018-02-20T11:17:53.163Z,31.20
2018-02-20T11:20:19.906Z,30.33
2018-02-20T11:22:46.517Z,30.20
2018-02-20T11:25:13.182Z,29.70
2018-02-20T11:27:39.818Z,29.55
2018-02-20T11:30:06.430Z,28.45
2018-02-20T11:32:33.038Z,28.33
2018-02-20T11:34:59.742Z,29.90
2018-02-20T11:37:26.421Z,31.42
2018-02-20T11:39:53.123Z,30.92
2018-02-20T11:42:19.801Z,31.65
2018-02-20T11:44:46.501Z,31.55
2018-02-20T11:47:13.113Z,28.83
2018-02-20T11:49:39.742Z,31.08
2018-02-20T11:52:06.358Z,32.55
2018-02-20T11:54:33.057Z,33.70
2018-02-20T11:56:59.798Z,30.90
2018-02-20T11:59:26.408Z,29.45
2018-02-20T12:01:53.118Z,30.35
2018-02-20T12:04:19.758Z,30.45
2018-02-20T12:06:46.365Z,30.92
2018-02-20T12:09:13.007Z,28.65
2018-02-20T12:11:39.734Z,29.87
2018-02-20T12:14:06.347Z,31.48
2018-02-20T12:16:33.059Z,31.08
2018-02-20T12:18:59.648Z,29.40
2018-02-20T12:21:26.258Z,28.87
2018-02-20T12:23:52.972Z,30.23
2018-02-20T12:26:19.599Z,29.48
2018-02-20T12:28:46.313Z,30.88
2018-02-20T12:31:12.954Z,30.98
2018-02-20T12:33:39.578Z,28.30
2018-02-20T12:36:06.198Z,29.48
2018-02-20T12:38:32.909Z,31.87
2018-02-20T12:40:59.608Z,31.08
2018-02-20T12:43:26.221Z,30.10
2018-02-20T12:45:52.829Z,28.35
2018-02-20T12:48:19.463Z,27.75
2018-02-20T12:50:46.079Z,30.45
2018-02-20T12:53:12.688Z,28.48
2018-02-20T12:55:39.342Z,31.20
2018-02-20T12:58:05.983Z,28.60
2018-02-20T13:00:32.661Z,29.48
2018-02-20T13:02:59.296Z,27.87
2018-02-20T13:05:26.006Z,29.33
2018-02-20T13:07:52.622Z,28.17
2018-02-20T13:10:19.277Z,28.08
2018-02-20T13:12:45.890Z,28.45
2018-02-20T13:15:12.505Z,29.25
2018-02-20T13:17:39.197Z,28.98
2018-02-20T13:20:05.843Z,29.95
2018-02-20T13:22:32.449Z,29.65
2018-02-20T13:24:59.078Z,31.37
2018-02-20T13:27:25.691Z,28.17
2018-02-20T13:29:52.389Z,29.60
2018-02-20T13:32:19.038Z,29.15
2018-02-20T13:34:45.711Z,28.60
2018-02-20T13:37:12.322Z,28.90
2018-02-20T13:39:39.066Z,30.12
2018-02-20T13:42:05.794Z,29.67
2018-02-20T13:44:32.430Z,28.85
2018-02-20T13:46:59.070Z,30.02
2018-02-20T13:49:25.711Z,27.85
2018-02-20T13:51:52.352Z,27.30
2018-02-20T13:54:18.982Z,28.70
2018-02-20T13:56:45.629Z,29.08
2018-02-20T13:59:12.246Z,29.37
2018-02-20T14:01:38.905Z,27.77
2018-02-20T14:04:05.554Z,31.35
2018-02-20T14:06:32.162Z,30.35
2018-02-20T14:08:58.863Z,31.23
2018-02-20T14:11:25.503Z,29.58
2018-02-20T14:13:52.206Z,29.10
2018-02-20T14:16:18.883Z,29.15
2018-02-20T14:18:45.501Z,30.05
2018-02-20T14:21:12.221Z,28.95
2018-02-20T14:23:38.870Z,32.10
2018-02-20T14:26:05.544Z,28.23
2018-02-20T14:28:32.146Z,27.80
2018-02-20T14:30:58.884Z,30.10
2018-02-20T14:33:25.494Z,30.37
2018-02-20T14:35:52.202Z,31.20
2018-02-20T14:38:18.823Z,32.38
2018-02-20T14:40:45.582Z,31.95
2018-02-20T14:43:12.190Z,32.92
2018-02-20T14:45:38.827Z,32.30
2018-02-20T14:48:05.453Z,31.23
2018-02-20T14:50:32.140Z,31.95
2018-02-20T14:52:58.773Z,28.67
2018-02-20T14:55:25.382Z,30.85
2018-02-20T14:57:51.998Z,31.20
2018-02-20T15:00:18.697Z,32.17
2018-02-20T15:02:45.393Z,33.28
2018-02-20T15:05:12.006Z,31.48
2018-02-20T15:07:38.673Z,30.50
2018-02-20T15:10:05.281Z,32.67
2018-02-20T15:12:31.893Z,30.10
2018-02-20T15:14:58.590Z,32.55
2018-02-20T15:17:25.229Z,33.75
2018-02-20T15:19:51.899Z,29.27
2018-02-20T15:22:18.481Z,31.52
2018-02-20T15:24:45.110Z,30.80
2018-02-20T15:27:11.726Z,31.65
2018-02-20T15:29:38.421Z,31.45
2018-02-20T15:32:05.029Z,28.75
2018-02-20T15:34:31.646Z,31.52
2018-02-20T15:36:58.389Z,31.42
2018-02-20T15:39:25.006Z,32.22
2018-02-20T15:41:51.618Z,33.40
2018-02-20T15:44:18.338Z,32.30
2018-02-20T15:46:45.002Z,32.03
2018-02-20T15:49:11.617Z,32.28
2018-02-20T15:51:38.246Z,31.27
2018-02-20T15:54:04.859Z,31.95
2018-02-20T15:56:31.466Z,32.75
2018-02-20T15:58:58.099Z,32.17
2018-02-20T16:01:24.706Z,30.65
2018-02-20T16:03:51.378Z,30.08
2018-02-20T16:06:18.114Z,33.60
2018-02-20T16:08:44.759Z,32.00
2018-02-20T16:11:11.370Z,34.00
2018-02-20T16:13:38.010Z,32.35
2018-02-20T16:16:09.165Z,33.08
2018-02-20T16:18:35.825Z,31.92
2018-02-20T16:21:02.446Z,30.80
2018-02-20T16:23:29.058Z,32.20
2018-02-20T16:25:55.674Z,31.42
2018-02-20T16:28:22.306Z,35.65
2018-02-20T16:30:49.014Z,33.40
2018-02-20T16:33:15.626Z,31.05
2018-02-20T16:35:42.253Z,33.20
2018-02-20T16:38:08.971Z,34.92
2018-02-20T16:40:35.671Z,30.27
2018-02-20T16:43:02.423Z,32.20
2018-02-20T16:45:29.054Z,29.50
2018-02-20T16:47:55.662Z,31.92
2018-02-20T16:50:22.292Z,31.73
2018-02-20T16:52:48.972Z,34.45
2018-02-20T16:55:15.591Z,31.25
2018-02-20T16:57:42.220Z,33.30
2018-02-20T17:00:08.927Z,33.60
2018-02-20T17:02:35.622Z,33.83
2018-02-20T17:05:02.267Z,35.47
2018-02-20T17:07:28.888Z,34.22
2018-02-20T17:09:55.546Z,31.30
2018-02-20T17:12:22.182Z,33.03
2018-02-20T17:14:48.789Z,34.70
2018-02-20T17:17:15.401Z,35.90
2018-02-20T17:19:42.030Z,36.05
2018-02-20T17:22:08.641Z,38.20
2018-02-20T17:24:35.259Z,35.00
2018-02-20T17:27:01.890Z,35.45
2018-02-20T17:29:28.558Z,34.15
2018-02-20T17:31:55.689Z,34.25
2018-02-20T17:34:22.319Z,35.00
2018-02-20T17:36:48.934Z,37.17
2018-02-20T17:39:15.550Z,36.65
2018-02-20T17:41:42.263Z,37.53
2018-02-20T17:44:08.876Z,36.03
2018-02-20T17:46:35.542Z,37.88
2018-02-20T17:49:02.175Z,40.20
2018-02-20T17:51:28.790Z,37.30
2018-02-20T17:53:55.405Z,37.53
2018-02-20T17:56:22.031Z,36.97
2018-02-20T17:58:48.645Z,36.33
2018-02-20T18:01:15.280Z,36.03
2018-02-20T18:03:41.910Z,36.20
2018-02-20T18:06:08.522Z,38.70
2018-02-20T18:08:35.152Z,39.50
2018-02-20T18:11:01.790Z,41.45
2018-02-20T18:13:28.402Z,38.55
2018-02-20T18:15:55.013Z,39.60
2018-02-20T18:18:21.646Z,39.67
2018-02-20T18:20:48.282Z,38.92
2018-02-20T18:23:14.898Z,38.38
2018-02-20T18:25:41.526Z,36.88
2018-02-20T18:28:08.202Z,41.00
2018-02-20T18:30:34.855Z,37.90
2018-02-20T18:33:01.482Z,40.83
2018-02-20T18:35:28.098Z,39.72
2018-02-20T18:37:54.758Z,38.58
2018-02-20T18:40:21.386Z,39.50
2018-02-20T18:42:47.998Z,38.53
2018-02-20T18:45:14.673Z,38.70
2018-02-20T18:47:41.413Z,38.50
2018-02-20T18:50:08.029Z,40.03
2018-02-20T18:52:34.694Z,40.80
2018-02-20T18:55:01.442Z,40.00
2018-02-20T18:57:28.062Z,36.15
2018-02-20T18:59:54.673Z,39.92
2018-02-20T19:02:21.311Z,38.95
2018-02-20T19:04:47.950Z,40.65
2018-02-20T19:07:14.568Z,38.10
2018-02-20T19:09:41.189Z,42.97
2018-02-20T19:12:07.810Z,60.45
2018-02-20T19:14:34.422Z,41.95
2018-02-20T19:17:01.085Z,39.80
2018-02-20T19:19:27.726Z,39.30
2018-02-20T19:21:54.387Z,41.33
2018-02-20T19:24:21.022Z,41.05
2018-02-20T19:26:47.635Z,39.08
2018-02-20T19:29:14.266Z,40.97
2018-02-20T19:31:40.896Z,39.25
2018-02-20T19:34:07.557Z,41.15
2018-02-20T19:36:34.197Z,35.00
2018-02-20T19:39:00.822Z,40.30
2018-02-20T19:41:27.484Z,38.63
2018-02-20T19:43:54.118Z,39.15
2018-02-20T19:46:20.799Z,38.33
2018-02-20T19:48:47.411Z,40.30
2018-02-20T19:51:14.074Z,42.50
2018-02-20T19:53:40.773Z,42.60
2018-02-20T19:56:07.455Z,41.30
2018-02-20T19:58:34.060Z,40.65
2018-02-20T20:01:00.689Z,39.90
2018-02-20T20:03:27.310Z,44.88
2018-02-20T20:05:54.015Z,43.33
2018-02-20T20:08:20.642Z,45.35
2018-02-20T20:10:47.254Z,42.53
2018-02-20T20:13:13.869Z,45.60
2018-02-20T20:15:40.525Z,44.72
2018-02-20T20:18:07.162Z,43.80
2018-02-20T20:20:37.010Z,45.33
2018-02-20T20:23:00.546Z,42.47
2018-02-20T20:25:27.162Z,44.22
2018-02-20T20:27:53.826Z,43.38
2018-02-20T20:30:20.455Z,45.47
2018-02-20T20:32:47.058Z,44.03
2018-02-20T20:35:13.742Z,45.28
2018-02-20T20:37:40.408Z,46.63
2018-02-20T20:40:07.020Z,45.10
2018-02-20T20:42:33.629Z,46.45
2018-02-20T20:45:00.303Z,45.08
2018-02-20T20:47:26.914Z,46.65
2018-02-20T20:49:53.534Z,46.40
2018-02-20T20:52:20.169Z,46.67
2018-02-20T20:54:46.839Z,45.00
2018-02-20T20:57:13.498Z,46.72
2018-02-20T20:59:40.121Z,47.78
2018-02-20T21:02:06.733Z,44.65
2018-02-20T21:04:33.418Z,47.72
2018-02-20T21:07:00.042Z,45.58
2018-02-20T21:09:26.690Z,46.50
2018-02-20T21:11:53.305Z,48.05
2018-02-20T21:14:19.929Z,45.88
2018-02-20T21:16:46.606Z,46.40
2018-02-20T21:19:13.214Z,50.90
2018-02-20T21:21:39.882Z,50.00
2018-02-20T21:24:06.494Z,50.95
2018-02-20T21:26:33.106Z,46.80
2018-02-20T21:28:59.734Z,47.30
2018-02-20T21:31:26.441Z,51.28
2018-02-20T21:33:53.053Z,48.75
2018-02-20T21:36:19.726Z,47.62
2018-02-20T21:38:46.335Z,47.90
2018-02-20T21:41:12.946Z,50.33
2018-02-20T21:43:39.574Z,49.42
2018-02-20T21:46:06.279Z,52.10
2018-02-20T21:48:32.887Z,54.78
2018-02-20T21:50:59.554Z,51.60
2018-02-20T21:53:26.166Z,56.20
2018-02-20T21:55:52.777Z,53.72
2018-02-20T21:58:19.414Z,56.75
2018-02-20T22:00:46.022Z,58.17
2018-02-20T22:03:12.637Z,56.60
2018-02-20T22:05:39.270Z,54.95
2018-02-20T22:08:05.886Z,55.65
2018-02-20T22:10:32.561Z,54.08
2018-02-20T22:12:59.246Z,56.47
2018-02-20T22:15:25.862Z,56.45
2018-02-20T22:17:52.587Z,55.78
2018-02-20T22:20:19.326Z,63.85
2018-02-20T22:22:45.970Z,59.78
2018-02-20T22:25:12.605Z,65.87
2018-02-20T22:27:39.243Z,63.05
2018-02-20T22:30:05.887Z,62.13
2018-02-20T22:32:32.505Z,59.28
2018-02-20T22:34:59.203Z,57.10
2018-02-20T22:37:25.906Z,61.28
2018-02-20T22:39:52.542Z,60.28
2018-02-20T22:42:19.174Z,62.58
2018-02-20T22:44:45.822Z,62.97
2018-02-20T22:47:12.456Z,63.50
2018-02-20T22:49:39.084Z,62.35
2018-02-20T22:52:05.738Z,60.47
2018-02-20T22:54:32.358Z,59.25
2018-02-20T22:56:58.985Z,58.13
2018-02-20T22:59:25.601Z,59.17
2018-02-20T23:01:52.221Z,61.28
2018-02-20T23:04:18.858Z,59.28
2018-02-20T23:06:45.468Z,61.20
2018-02-20T23:09:12.077Z,58.10
2018-02-20T23:11:44.694Z,59.90
2018-02-20T23:14:11.331Z,59.20
2018-02-20T23:16:37.970Z,58.35
2018-02-20T23:19:04.594Z,56.97
2018-02-20T23:21:31.209Z,58.75
2018-02-20T23:23:57.894Z,58.42
2018-02-20T23:26:24.526Z,56.42
2018-02-20T23:28:51.143Z,60.35
2018-02-20T23:31:17.758Z,60.70
2018-02-20T23:33:44.437Z,59.65
2018-02-20T23:36:11.062Z,60.12
2018-02-20T23:38:37.718Z,64.15
2018-02-20T23:41:04.458Z,60.53
2018-02-20T23:43:31.070Z,58.60
2018-02-20T23:45:57.682Z,62.22
2018-02-20T23:48:24.417Z,61.28
2018-02-20T23:50:51.026Z,57.45
2018-02-20T23:53:22.614Z,59.30
2018-02-20T23:55:49.315Z,61.92
2018-02-20T23:58:15.992Z,59.25
